Time,TemperatureF,DewpointF,PressureIn,WindDirection,WindDirectionDegrees,WindSpeedMPH,WindSpeedGustMPH,Humidity,HourlyPrecipIn,Conditions,Clouds,dailyrainin,SolarRadiationWatts/m^2,SoftwareType,DateUTC
2013-01-19 00:22:00,42.0,17.0,-100.00,WNW,292,1.0,13.0,36,0.00,,,0.00,27.000000,,2013-01-19 00:22:00,
2013-01-19 00:33:00,42.0,17.0,-100.00,WNW,292,1.0,13.0,36,0.00,,,0.00,27.000000,,2013-01-19 00:33:00,
2013-01-19 00:43:00,42.0,17.0,-100.00,WNW,292,1.0,13.0,36,0.00,,,0.00,27.000000,,2013-01-19 00:43:00,
2013-01-19 00:53:00,42.0,17.0,-100.00,WNW,292,1.0,13.0,36,0.00,,,0.00,27.000000,,2013-01-19 00:53:00,
2013-01-19 01:22:00,40.0,16.0,-100.00,South,175,2.0,4.0,38,0.00,,,0.00,1.000000,,2013-01-19 01:22:00,
2013-01-19 01:33:00,40.0,16.0,-100.00,South,175,2.0,4.0,38,0.00,,,0.00,1.000000,,2013-01-19 01:33:00,
2013-01-19 01:42:00,40.0,16.0,-100.00,South,175,2.0,4.0,38,0.00,,,0.00,1.000000,,2013-01-19 01:42:00,
2013-01-19 01:52:00,40.0,16.0,-100.00,South,175,2.0,4.0,38,0.00,,,0.00,1.000000,,2013-01-19 01:52:00,
2013-01-19 02:22:00,40.0,18.0,-100.00,SW,221,3.0,6.0,40,0.00,,,0.00,0.000000,,2013-01-19 02:22:00,
2013-01-19 02:33:00,40.0,18.0,-100.00,SW,221,3.0,6.0,40,0.00,,,0.00,0.000000,,2013-01-19 02:33:00,
2013-01-19 02:43:00,40.0,18.0,-100.00,SW,221,3.0,6.0,40,0.00,,,0.00,0.000000,,2013-01-19 02:43:00,
2013-01-19 02:53:00,40.0,18.0,-100.00,SW,221,3.0,6.0,40,0.00,,,0.00,0.000000,,2013-01-19 02:53:00,
2013-01-19 03:22:00,39.0,17.0,-100.00,SSW,198,5.0,6.0,40,0.00,,,0.00,0.000000,,2013-01-19 03:22:00,
2013-01-19 03:33:00,39.0,17.0,-100.00,SSW,198,5.0,6.0,40,0.00,,,0.00,0.000000,,2013-01-19 03:33:00,
2013-01-19 03:43:00,39.0,17.0,-100.00,SSW,198,5.0,6.0,40,0.00,,,0.00,0.000000,,2013-01-19 03:43:00,
2013-01-19 03:52:00,39.0,17.0,-100.00,SSW,198,5.0,6.0,40,0.00,,,0.00,0.000000,,2013-01-19 03:52:00,
2013-01-19 04:22:00,38.0,17.0,-100.00,South,171,4.0,6.0,42,0.00,,,0.00,0.000000,,2013-01-19 04:22:00,
2013-01-19 04:32:00,38.0,17.0,-100.00,South,171,4.0,6.0,42,0.00,,,0.00,0.000000,,2013-01-19 04:32:00,
2013-01-19 04:42:00,38.0,17.0,-100.00,South,171,4.0,6.0,42,0.00,,,0.00,0.000000,,2013-01-19 04:42:00,
2013-01-19 04:52:00,38.0,17.0,-100.00,South,171,4.0,6.0,42,0.00,,,0.00,0.000000,,2013-01-19 04:52:00,
2013-01-19 05:23:00,37.0,17.0,-100.00,West,272,4.0,11.0,43,0.00,,,0.00,0.000000,,2013-01-19 05:23:00,
2013-01-19 05:33:00,37.0,17.0,-100.00,West,272,4.0,11.0,43,0.00,,,0.00,0.000000,,2013-01-19 05:33:00,
2013-01-19 05:42:00,37.0,17.0,-100.00,West,272,4.0,11.0,43,0.00,,,0.00,0.000000,,2013-01-19 05:42:00,
2013-01-19 05:52:00,37.0,17.0,-100.00,West,272,4.0,11.0,43,0.00,,,0.00,0.000000,,2013-01-19 05:52:00,
2013-01-19 06:22:00,37.0,18.0,-100.00,West,271,4.0,11.0,45,0.00,,,0.00,0.000000,,2013-01-19 06:22:00,
2013-01-19 06:32:00,37.0,18.0,-100.00,West,271,4.0,11.0,45,0.00,,,0.00,0.000000,,2013-01-19 06:32:00,
2013-01-19 06:43:00,37.0,18.0,-100.00,West,271,4.0,11.0,45,0.00,,,0.00,0.000000,,2013-01-19 06:43:00,
2013-01-19 06:52:00,37.0,18.0,-100.00,West,271,4.0,11.0,45,0.00,,,0.00,0.000000,,2013-01-19 06:52:00,
2013-01-19 07:22:00,33.0,16.0,-100.00,WNW,291,2.0,11.0,50,0.00,,,0.00,0.000000,,2013-01-19 07:22:00,
2013-01-19 07:33:00,33.0,16.0,-100.00,WNW,291,2.0,11.0,50,0.00,,,0.00,0.000000,,2013-01-19 07:33:00,
2013-01-19 07:43:00,33.0,16.0,-100.00,WNW,291,2.0,11.0,50,0.00,,,0.00,0.000000,,2013-01-19 07:43:00,
2013-01-19 07:52:00,33.0,16.0,-100.00,WNW,291,2.0,11.0,50,0.00,,,0.00,0.000000,,2013-01-19 07:52:00,
2013-01-19 08:22:00,36.0,18.0,-100.00,WNW,298,5.0,15.0,47,0.00,,,0.00,0.000000,,2013-01-19 08:22:00,
2013-01-19 08:32:00,36.0,18.0,-100.00,WNW,298,5.0,15.0,47,0.00,,,0.00,0.000000,,2013-01-19 08:32:00,
2013-01-19 08:43:00,36.0,18.0,-100.00,WNW,298,5.0,15.0,47,0.00,,,0.00,0.000000,,2013-01-19 08:43:00,
2013-01-19 08:52:00,36.0,18.0,-100.00,WNW,298,5.0,15.0,47,0.00,,,0.00,0.000000,,2013-01-19 08:52:00,
2013-01-19 09:23:00,37.0,16.0,-100.00,West,279,8.0,16.0,41,0.00,,,0.00,0.000000,,2013-01-19 09:23:00,
2013-01-19 09:33:00,37.0,16.0,-100.00,West,279,8.0,16.0,41,0.00,,,0.00,0.000000,,2013-01-19 09:33:00,
2013-01-19 09:42:00,37.0,16.0,-100.00,West,279,8.0,16.0,41,0.00,,,0.00,0.000000,,2013-01-19 09:42:00,
2013-01-19 09:52:00,37.0,16.0,-100.00,West,279,8.0,16.0,41,0.00,,,0.00,0.000000,,2013-01-19 09:52:00,
2013-01-19 10:22:00,36.0,15.0,-100.00,NW,316,7.0,16.0,42,0.00,,,0.00,0.000000,,2013-01-19 10:22:00,
2013-01-19 10:32:00,36.0,15.0,-100.00,NW,316,7.0,16.0,42,0.00,,,0.00,0.000000,,2013-01-19 10:32:00,
2013-01-19 10:42:00,36.0,15.0,-100.00,NW,316,7.0,16.0,42,0.00,,,0.00,0.000000,,2013-01-19 10:42:00,
2013-01-19 10:52:00,36.0,15.0,-100.00,NW,316,7.0,16.0,42,0.00,,,0.00,0.000000,,2013-01-19 10:52:00,
2013-01-19 12:48:00,35.0,15.0,-100.00,NW,304,6.0,14.0,43,0.00,,,0.00,0.000000,,2013-01-19 12:48:00,
2013-01-19 12:52:00,35.0,15.0,-100.00,NW,304,6.0,14.0,43,0.00,,,0.00,0.000000,,2013-01-19 12:52:00,
2013-01-19 13:22:00,35.0,15.0,-100.00,NW,306,7.0,17.0,43,0.00,,,0.00,0.000000,,2013-01-19 13:22:00,
2013-01-19 13:33:00,35.0,15.0,-100.00,NW,306,7.0,17.0,43,0.00,,,0.00,0.000000,,2013-01-19 13:33:00,
2013-01-19 13:42:00,35.0,15.0,-100.00,NW,306,7.0,17.0,43,0.00,,,0.00,0.000000,,2013-01-19 13:42:00,
2013-01-19 13:52:00,35.0,15.0,-100.00,NW,306,7.0,17.0,43,0.00,,,0.00,0.000000,,2013-01-19 13:52:00,
2013-01-19 14:23:00,35.0,14.0,-100.00,WNW,303,7.0,20.0,42,0.00,,,0.00,0.000000,,2013-01-19 14:23:00,
2013-01-19 14:34:00,35.0,14.0,-100.00,WNW,303,7.0,20.0,42,0.00,,,0.00,0.000000,,2013-01-19 14:34:00,
2013-01-19 14:43:00,35.0,14.0,-100.00,WNW,303,7.0,20.0,42,0.00,,,0.00,0.000000,,2013-01-19 14:43:00,
2013-01-19 14:53:00,35.0,14.0,-100.00,WNW,303,7.0,20.0,42,0.00,,,0.00,0.000000,,2013-01-19 14:53:00,
2013-01-19 15:23:00,35.0,14.0,-100.00,WNW,301,5.0,16.0,42,0.00,,,0.00,8.000000,,2013-01-19 15:23:00,
2013-01-19 15:33:00,35.0,14.0,-100.00,WNW,301,5.0,16.0,42,0.00,,,0.00,8.000000,,2013-01-19 15:33:00,
2013-01-19 15:43:00,35.0,14.0,-100.00,WNW,301,5.0,16.0,42,0.00,,,0.00,8.000000,,2013-01-19 15:43:00,
2013-01-19 15:53:00,35.0,14.0,-100.00,WNW,301,5.0,16.0,42,0.00,,,0.00,8.000000,,2013-01-19 15:53:00,
2013-01-19 16:23:00,35.0,14.0,-100.00,SSW,207,5.0,13.0,42,0.00,,,0.00,132.000000,,2013-01-19 16:23:00,
2013-01-19 16:33:00,35.0,14.0,-100.00,SSW,207,5.0,13.0,42,0.00,,,0.00,132.000000,,2013-01-19 16:33:00,
2013-01-19 16:43:00,35.0,14.0,-100.00,SSW,207,5.0,13.0,42,0.00,,,0.00,132.000000,,2013-01-19 16:43:00,
2013-01-19 16:53:00,35.0,14.0,-100.00,SSW,207,5.0,13.0,42,0.00,,,0.00,132.000000,,2013-01-19 16:53:00,
2013-01-19 17:29:00,42.0,16.0,-100.00,SW,229,3.0,12.0,34,0.00,,,0.00,328.000000,,2013-01-19 17:29:00,
2013-01-19 17:35:00,42.0,16.0,-100.00,SW,229,3.0,12.0,34,0.00,,,0.00,328.000000,,2013-01-19 17:35:00,
2013-01-19 17:48:00,42.0,16.0,-100.00,SW,229,3.0,12.0,34,0.00,,,0.00,328.000000,,2013-01-19 17:48:00,
2013-01-19 17:53:00,42.0,16.0,-100.00,SW,229,3.0,12.0,34,0.00,,,0.00,328.000000,,2013-01-19 17:53:00,
2013-01-19 18:27:00,46.0,16.0,-100.00,NNW,346,3.0,10.0,30,0.00,,,0.00,448.000000,,2013-01-19 18:27:00,
2013-01-19 18:35:00,46.0,16.0,-100.00,NNW,346,3.0,10.0,30,0.00,,,0.00,448.000000,,2013-01-19 18:35:00,
2013-01-19 18:45:00,46.0,16.0,-100.00,NNW,346,3.0,10.0,30,0.00,,,0.00,448.000000,,2013-01-19 18:45:00,
2013-01-19 18:55:00,46.0,16.0,-100.00,NNW,346,3.0,10.0,30,0.00,,,0.00,448.000000,,2013-01-19 18:55:00,
2013-01-19 19:30:00,46.0,18.0,-100.00,NNW,343,4.0,11.0,32,0.00,,,0.00,518.000000,,2013-01-19 19:30:00,
2013-01-19 19:39:00,46.0,18.0,-100.00,NNW,343,4.0,11.0,32,0.00,,,0.00,518.000000,,2013-01-19 19:39:00,
2013-01-19 19:46:00,46.0,18.0,-100.00,NNW,343,4.0,11.0,32,0.00,,,0.00,518.000000,,2013-01-19 19:46:00,
2013-01-19 19:54:00,46.0,18.0,-100.00,NNW,343,4.0,11.0,32,0.00,,,0.00,518.000000,,2013-01-19 19:54:00,
2013-01-19 20:25:00,46.0,18.0,-100.00,NNW,334,5.0,11.0,32,0.00,,,0.00,529.000000,,2013-01-19 20:25:00,
2013-01-19 20:38:00,46.0,18.0,-100.00,NNW,334,5.0,11.0,32,0.00,,,0.00,529.000000,,2013-01-19 20:38:00,
2013-01-19 20:47:00,46.0,18.0,-100.00,NNW,334,5.0,11.0,32,0.00,,,0.00,529.000000,,2013-01-19 20:47:00,
2013-01-19 20:54:00,46.0,18.0,-100.00,NNW,334,5.0,11.0,32,0.00,,,0.00,529.000000,,2013-01-19 20:54:00,
2013-01-19 21:26:00,46.0,17.0,-100.00,NNW,334,5.0,14.0,31,0.00,,,0.00,467.000000,,2013-01-19 21:26:00,
2013-01-19 21:50:00,46.0,17.0,-100.00,NNW,334,5.0,14.0,31,0.00,,,0.00,467.000000,,2013-01-19 21:50:00,
2013-01-19 21:56:00,46.0,17.0,-100.00,NNW,334,5.0,14.0,31,0.00,,,0.00,467.000000,,2013-01-19 21:56:00,
2013-01-19 22:27:00,44.0,17.0,-100.00,NW,309,4.0,12.0,34,0.00,,,0.00,297.000000,,2013-01-19 22:27:00,
2013-01-19 22:35:00,44.0,17.0,-100.00,NW,309,4.0,12.0,34,0.00,,,0.00,297.000000,,2013-01-19 22:35:00,
2013-01-19 22:47:00,44.0,17.0,-100.00,NW,309,4.0,12.0,34,0.00,,,0.00,297.000000,,2013-01-19 22:47:00,
2013-01-19 22:54:00,44.0,17.0,-100.00,NW,309,4.0,12.0,34,0.00,,,0.00,297.000000,,2013-01-19 22:54:00,
2013-01-19 23:25:00,42.0,17.0,-100.00,WNW,289,1.0,8.0,36,0.00,,,0.00,35.000000,,2013-01-19 23:25:00,
2013-01-19 23:34:00,42.0,17.0,-100.00,WNW,289,1.0,8.0,36,0.00,,,0.00,35.000000,,2013-01-19 23:34:00,
2013-01-19 23:45:00,42.0,17.0,-100.00,WNW,289,1.0,8.0,36,0.00,,,0.00,35.000000,,2013-01-19 23:45:00,